sensor_id;sensor_type;location;lat;lon;timestamp;P1;durP1;ratioP1;P2;durP2;ratioP2
60502;SDS011;51448;51.660;5.824;2023-05-31T00:01:09;8.70;;;6.00;;
60502;SDS011;51448;51.660;5.824;2023-05-31T00:03:57;8.77;;;6.35;;
60502;SDS011;51448;51.660;5.824;2023-05-31T00:06:45;9.13;;;6.50;;
60502;SDS011;51448;51.660;5.824;2023-05-31T00:12:50;8.70;;;5.70;;
60502;SDS011;51448;51.660;5.824;2023-05-31T00:15:38;9.73;;;6.10;;
60502;SDS011;51448;51.660;5.824;2023-05-31T00:18:26;8.63;;;6.70;;
60502;SDS011;51448;51.660;5.824;2023-05-31T00:21:14;10.52;;;6.00;;
60502;SDS011;51448;51.660;5.824;2023-05-31T00:24:02;9.52;;;6.10;;
60502;SDS011;51448;51.660;5.824;2023-05-31T00:26:50;10.40;;;6.45;;
60502;SDS011;51448;51.660;5.824;2023-05-31T00:29:38;10.32;;;6.57;;
60502;SDS011;51448;51.660;5.824;2023-05-31T00:32:26;8.98;;;6.20;;
60502;SDS011;51448;51.660;5.824;2023-05-31T00:35:14;9.38;;;6.13;;
60502;SDS011;51448;51.660;5.824;2023-05-31T00:38:04;9.75;;;6.55;;
60502;SDS011;51448;51.660;5.824;2023-05-31T00:40:54;9.75;;;6.63;;
60502;SDS011;51448;51.660;5.824;2023-05-31T00:43:43;9.90;;;6.80;;
60502;SDS011;51448;51.660;5.824;2023-05-31T00:46:32;8.65;;;6.30;;
60502;SDS011;51448;51.660;5.824;2023-05-31T00:49:24;9.95;;;6.85;;
60502;SDS011;51448;51.660;5.824;2023-05-31T00:52:14;9.95;;;6.65;;
60502;SDS011;51448;51.660;5.824;2023-05-31T00:55:03;8.85;;;6.65;;
60502;SDS011;51448;51.660;5.824;2023-05-31T00:57:52;9.88;;;7.15;;
60502;SDS011;51448;51.660;5.824;2023-05-31T01:00:40;12.07;;;6.30;;
60502;SDS011;51448;51.660;5.824;2023-05-31T01:03:28;10.57;;;6.80;;
60502;SDS011;51448;51.660;5.824;2023-05-31T01:06:15;8.95;;;6.53;;
60502;SDS011;51448;51.660;5.824;2023-05-31T01:09:05;9.02;;;6.18;;
60502;SDS011;51448;51.660;5.824;2023-05-31T01:12:04;9.75;;;6.63;;
60502;SDS011;51448;51.660;5.824;2023-05-31T01:15:11;8.60;;;6.47;;
60502;SDS011;51448;51.660;5.824;2023-05-31T01:24:57;7.97;;;6.20;;
60502;SDS011;51448;51.660;5.824;2023-05-31T01:28:27;11.93;;;7.28;;
60502;SDS011;51448;51.660;5.824;2023-05-31T01:31:22;9.93;;;6.82;;
60502;SDS011;51448;51.660;5.824;2023-05-31T01:34:10;9.30;;;6.78;;
60502;SDS011;51448;51.660;5.824;2023-05-31T01:37:00;9.35;;;6.13;;
60502;SDS011;51448;51.660;5.824;2023-05-31T01:39:49;10.32;;;6.85;;
60502;SDS011;51448;51.660;5.824;2023-05-31T01:42:39;8.55;;;6.68;;
60502;SDS011;51448;51.660;5.824;2023-05-31T01:45:29;9.48;;;7.07;;
60502;SDS011;51448;51.660;5.824;2023-05-31T01:48:19;10.35;;;7.28;;
60502;SDS011;51448;51.660;5.824;2023-05-31T01:51:09;9.77;;;6.68;;
60502;SDS011;51448;51.660;5.824;2023-05-31T01:54:01;12.73;;;6.93;;
60502;SDS011;51448;51.660;5.824;2023-05-31T01:56:50;9.82;;;7.47;;
60502;SDS011;51448;51.660;5.824;2023-05-31T02:03:24;12.50;;;7.45;;
60502;SDS011;51448;51.660;5.824;2023-05-31T02:06:13;10.50;;;7.70;;
60502;SDS011;51448;51.660;5.824;2023-05-31T02:09:01;9.57;;;6.88;;
60502;SDS011;51448;51.660;5.824;2023-05-31T02:14:42;11.75;;;7.10;;
60502;SDS011;51448;51.660;5.824;2023-05-31T02:17:30;11.38;;;7.55;;
60502;SDS011;51448;51.660;5.824;2023-05-31T02:20:22;10.27;;;6.70;;
60502;SDS011;51448;51.660;5.824;2023-05-31T02:23:11;10.68;;;7.57;;
60502;SDS011;51448;51.660;5.824;2023-05-31T02:26:04;12.55;;;8.02;;
60502;SDS011;51448;51.660;5.824;2023-05-31T02:28:52;12.13;;;8.10;;
60502;SDS011;51448;51.660;5.824;2023-05-31T02:31:41;10.52;;;7.90;;
60502;SDS011;51448;51.660;5.824;2023-05-31T02:34:30;14.23;;;8.68;;
60502;SDS011;51448;51.660;5.824;2023-05-31T02:37:19;11.65;;;8.00;;
60502;SDS011;51448;51.660;5.824;2023-05-31T02:40:07;12.40;;;7.80;;
60502;SDS011;51448;51.660;5.824;2023-05-31T02:42:56;10.90;;;7.93;;
60502;SDS011;51448;51.660;5.824;2023-05-31T02:45:45;12.48;;;8.02;;
60502;SDS011;51448;51.660;5.824;2023-05-31T02:48:33;14.35;;;8.68;;
60502;SDS011;51448;51.660;5.824;2023-05-31T02:51:22;10.30;;;8.07;;
60502;SDS011;51448;51.660;5.824;2023-05-31T02:54:41;11.38;;;8.00;;
60502;SDS011;51448;51.660;5.824;2023-05-31T02:57:34;11.30;;;8.15;;
60502;SDS011;51448;51.660;5.824;2023-05-31T03:00:22;11.00;;;8.18;;
60502;SDS011;51448;51.660;5.824;2023-05-31T03:03:11;11.55;;;8.23;;
60502;SDS011;51448;51.660;5.824;2023-05-31T03:06:17;11.18;;;8.15;;
60502;SDS011;51448;51.660;5.824;2023-05-31T03:09:06;11.98;;;8.70;;
60502;SDS011;51448;51.660;5.824;2023-05-31T03:11:56;13.43;;;9.15;;
60502;SDS011;51448;51.660;5.824;2023-05-31T03:14:44;13.13;;;9.15;;
60502;SDS011;51448;51.660;5.824;2023-05-31T03:17:35;11.35;;;8.38;;
60502;SDS011;51448;51.660;5.824;2023-05-31T03:20:25;13.88;;;8.80;;
60502;SDS011;51448;51.660;5.824;2023-05-31T03:23:13;13.65;;;9.27;;
60502;SDS011;51448;51.660;5.824;2023-05-31T03:26:01;14.23;;;9.20;;
60502;SDS011;51448;51.660;5.824;2023-05-31T03:28:52;14.25;;;8.85;;
60502;SDS011;51448;51.660;5.824;2023-05-31T03:31:40;12.80;;;9.02;;
60502;SDS011;51448;51.660;5.824;2023-05-31T03:34:29;12.98;;;8.85;;
60502;SDS011;51448;51.660;5.824;2023-05-31T03:37:18;13.07;;;9.15;;
60502;SDS011;51448;51.660;5.824;2023-05-31T03:40:14;11.98;;;8.98;;
60502;SDS011;51448;51.660;5.824;2023-05-31T03:43:03;12.50;;;8.73;;
60502;SDS011;51448;51.660;5.824;2023-05-31T03:45:52;12.73;;;9.25;;
60502;SDS011;51448;51.660;5.824;2023-05-31T03:48:41;13.40;;;10.07;;
60502;SDS011;51448;51.660;5.824;2023-05-31T03:51:29;15.18;;;9.68;;
60502;SDS011;51448;51.660;5.824;2023-05-31T03:54:17;14.32;;;9.57;;
60502;SDS011;51448;51.660;5.824;2023-05-31T03:57:06;14.13;;;9.82;;
60502;SDS011;51448;51.660;5.824;2023-05-31T03:59:55;15.73;;;10.50;;
60502;SDS011;51448;51.660;5.824;2023-05-31T04:02:43;18.42;;;11.52;;
60502;SDS011;51448;51.660;5.824;2023-05-31T04:05:49;14.93;;;10.55;;
60502;SDS011;51448;51.660;5.824;2023-05-31T04:08:37;16.40;;;10.15;;
60502;SDS011;51448;51.660;5.824;2023-05-31T04:11:25;14.75;;;9.77;;
60502;SDS011;51448;51.660;5.824;2023-05-31T04:14:13;14.93;;;10.15;;
60502;SDS011;51448;51.660;5.824;2023-05-31T04:17:01;14.85;;;9.82;;
60502;SDS011;51448;51.660;5.824;2023-05-31T04:19:50;14.45;;;10.20;;
60502;SDS011;51448;51.660;5.824;2023-05-31T04:22:38;15.90;;;10.98;;
60502;SDS011;51448;51.660;5.824;2023-05-31T04:25:26;16.92;;;11.00;;
60502;SDS011;51448;51.660;5.824;2023-05-31T04:28:16;16.52;;;10.82;;
60502;SDS011;51448;51.660;5.824;2023-05-31T04:33:56;16.45;;;10.32;;
60502;SDS011;51448;51.660;5.824;2023-05-31T04:36:44;14.85;;;10.57;;
60502;SDS011;51448;51.660;5.824;2023-05-31T04:39:41;14.57;;;10.80;;
60502;SDS011;51448;51.660;5.824;2023-05-31T04:42:32;18.27;;;11.43;;
60502;SDS011;51448;51.660;5.824;2023-05-31T04:45:21;14.82;;;10.40;;
60502;SDS011;51448;51.660;5.824;2023-05-31T04:48:11;15.00;;;10.38;;
60502;SDS011;51448;51.660;5.824;2023-05-31T04:51:02;17.88;;;10.77;;
60502;SDS011;51448;51.660;5.824;2023-05-31T04:53:51;15.55;;;10.10;;
60502;SDS011;51448;51.660;5.824;2023-05-31T04:56:41;15.52;;;9.93;;
60502;SDS011;51448;51.660;5.824;2023-05-31T04:59:30;16.60;;;9.85;;
60502;SDS011;51448;51.660;5.824;2023-05-31T05:02:19;18.27;;;10.43;;
60502;SDS011;51448;51.660;5.824;2023-05-31T05:05:11;14.00;;;9.73;;
60502;SDS011;51448;51.660;5.824;2023-05-31T05:08:00;15.85;;;10.40;;
60502;SDS011;51448;51.660;5.824;2023-05-31T05:10:49;16.08;;;10.75;;
60502;SDS011;51448;51.660;5.824;2023-05-31T05:16:28;16.67;;;10.35;;
60502;SDS011;51448;51.660;5.824;2023-05-31T05:19:17;15.55;;;10.18;;
60502;SDS011;51448;51.660;5.824;2023-05-31T05:22:05;16.20;;;10.90;;
60502;SDS011;51448;51.660;5.824;2023-05-31T05:24:54;14.73;;;10.52;;
60502;SDS011;51448;51.660;5.824;2023-05-31T05:27:42;14.88;;;10.50;;
60502;SDS011;51448;51.660;5.824;2023-05-31T05:30:30;15.27;;;10.32;;
60502;SDS011;51448;51.660;5.824;2023-05-31T05:33:20;15.52;;;10.90;;
60502;SDS011;51448;51.660;5.824;2023-05-31T05:36:40;18.27;;;10.80;;
60502;SDS011;51448;51.660;5.824;2023-05-31T05:39:28;17.70;;;10.75;;
60502;SDS011;51448;51.660;5.824;2023-05-31T05:42:16;16.85;;;10.35;;
60502;SDS011;51448;51.660;5.824;2023-05-31T05:45:04;16.33;;;10.85;;
60502;SDS011;51448;51.660;5.824;2023-05-31T05:47:57;13.70;;;10.00;;
60502;SDS011;51448;51.660;5.824;2023-05-31T05:50:46;16.08;;;10.63;;
60502;SDS011;51448;51.660;5.824;2023-05-31T05:53:34;16.42;;;11.02;;
60502;SDS011;51448;51.660;5.824;2023-05-31T05:56:22;16.52;;;11.60;;
60502;SDS011;51448;51.660;5.824;2023-05-31T05:59:17;18.08;;;10.98;;
60502;SDS011;51448;51.660;5.824;2023-05-31T06:05:24;15.63;;;10.70;;
60502;SDS011;51448;51.660;5.824;2023-05-31T06:08:14;16.33;;;10.95;;
60502;SDS011;51448;51.660;5.824;2023-05-31T06:11:05;14.93;;;10.45;;
60502;SDS011;51448;51.660;5.824;2023-05-31T06:14:04;16.63;;;10.35;;
60502;SDS011;51448;51.660;5.824;2023-05-31T06:16:59;15.77;;;10.88;;
60502;SDS011;51448;51.660;5.824;2023-05-31T06:19:47;18.83;;;11.13;;
60502;SDS011;51448;51.660;5.824;2023-05-31T06:22:34;15.55;;;10.13;;
60502;SDS011;51448;51.660;5.824;2023-05-31T06:25:22;15.98;;;10.55;;
60502;SDS011;51448;51.660;5.824;2023-05-31T06:28:10;17.08;;;9.82;;
60502;SDS011;51448;51.660;5.824;2023-05-31T06:31:00;16.48;;;10.60;;
60502;SDS011;51448;51.660;5.824;2023-05-31T06:33:53;18.20;;;10.40;;
60502;SDS011;51448;51.660;5.824;2023-05-31T06:36:46;15.65;;;10.45;;
60502;SDS011;51448;51.660;5.824;2023-05-31T06:39:41;14.90;;;10.13;;
60502;SDS011;51448;51.660;5.824;2023-05-31T06:42:30;17.75;;;10.10;;
60502;SDS011;51448;51.660;5.824;2023-05-31T06:49:36;19.20;;;10.60;;
60502;SDS011;51448;51.660;5.824;2023-05-31T06:52:40;15.75;;;9.75;;
60502;SDS011;51448;51.660;5.824;2023-05-31T06:55:47;15.27;;;9.80;;
60502;SDS011;51448;51.660;5.824;2023-05-31T07:01:32;17.58;;;10.10;;
60502;SDS011;51448;51.660;5.824;2023-05-31T07:04:24;15.07;;;8.98;;
60502;SDS011;51448;51.660;5.824;2023-05-31T07:07:16;15.63;;;9.77;;
60502;SDS011;51448;51.660;5.824;2023-05-31T07:10:16;16.52;;;9.40;;
60502;SDS011;51448;51.660;5.824;2023-05-31T07:13:17;13.18;;;9.23;;
60502;SDS011;51448;51.660;5.824;2023-05-31T07:16:15;17.33;;;9.25;;
60502;SDS011;51448;51.660;5.824;2023-05-31T07:19:09;14.75;;;9.38;;
60502;SDS011;51448;51.660;5.824;2023-05-31T07:21:59;14.48;;;8.55;;
60502;SDS011;51448;51.660;5.824;2023-05-31T07:24:47;17.00;;;9.38;;
60502;SDS011;51448;51.660;5.824;2023-05-31T07:27:36;16.48;;;9.00;;
60502;SDS011;51448;51.660;5.824;2023-05-31T07:30:24;13.60;;;9.05;;
60502;SDS011;51448;51.660;5.824;2023-05-31T07:33:12;15.60;;;9.23;;
60502;SDS011;51448;51.660;5.824;2023-05-31T07:36:10;15.05;;;9.15;;
60502;SDS011;51448;51.660;5.824;2023-05-31T07:38:59;14.90;;;8.18;;
60502;SDS011;51448;51.660;5.824;2023-05-31T07:41:47;15.07;;;8.75;;
60502;SDS011;51448;51.660;5.824;2023-05-31T07:44:35;12.88;;;8.35;;
60502;SDS011;51448;51.660;5.824;2023-05-31T07:47:23;13.43;;;8.98;;
60502;SDS011;51448;51.660;5.824;2023-05-31T07:50:11;18.05;;;9.05;;
60502;SDS011;51448;51.660;5.824;2023-05-31T07:52:59;13.25;;;8.52;;
60502;SDS011;51448;51.660;5.824;2023-05-31T07:55:47;16.10;;;8.40;;
60502;SDS011;51448;51.660;5.824;2023-05-31T07:58:35;15.30;;;9.07;;
60502;SDS011;51448;51.660;5.824;2023-05-31T08:01:23;14.43;;;9.02;;
60502;SDS011;51448;51.660;5.824;2023-05-31T08:04:11;19.02;;;9.45;;
60502;SDS011;51448;51.660;5.824;2023-05-31T08:06:59;13.45;;;8.40;;
60502;SDS011;51448;51.660;5.824;2023-05-31T08:09:48;14.40;;;8.23;;
60502;SDS011;51448;51.660;5.824;2023-05-31T08:12:39;14.25;;;7.68;;
60502;SDS011;51448;51.660;5.824;2023-05-31T08:15:54;15.27;;;8.07;;
60502;SDS011;51448;51.660;5.824;2023-05-31T08:18:43;13.73;;;7.75;;
60502;SDS011;51448;51.660;5.824;2023-05-31T08:21:32;13.15;;;7.78;;
60502;SDS011;51448;51.660;5.824;2023-05-31T08:24:20;13.60;;;8.00;;
60502;SDS011;51448;51.660;5.824;2023-05-31T08:27:08;12.68;;;7.93;;
60502;SDS011;51448;51.660;5.824;2023-05-31T08:29:55;12.75;;;7.95;;
60502;SDS011;51448;51.660;5.824;2023-05-31T08:32:43;16.15;;;7.45;;
60502;SDS011;51448;51.660;5.824;2023-05-31T08:35:31;12.88;;;7.28;;
60502;SDS011;51448;51.660;5.824;2023-05-31T08:38:19;16.65;;;7.45;;
60502;SDS011;51448;51.660;5.824;2023-05-31T08:41:07;14.02;;;8.32;;
60502;SDS011;51448;51.660;5.824;2023-05-31T08:43:55;12.32;;;8.13;;
60502;SDS011;51448;51.660;5.824;2023-05-31T08:46:45;11.88;;;7.03;;
60502;SDS011;51448;51.660;5.824;2023-05-31T08:49:35;13.48;;;7.60;;
60502;SDS011;51448;51.660;5.824;2023-05-31T08:52:23;12.77;;;6.75;;
60502;SDS011;51448;51.660;5.824;2023-05-31T08:55:12;13.32;;;7.60;;
60502;SDS011;51448;51.660;5.824;2023-05-31T08:58:01;13.68;;;7.63;;
60502;SDS011;51448;51.660;5.824;2023-05-31T09:00:50;10.18;;;6.07;;
60502;SDS011;51448;51.660;5.824;2023-05-31T09:03:38;10.73;;;6.97;;
60502;SDS011;51448;51.660;5.824;2023-05-31T09:06:29;12.32;;;7.20;;
60502;SDS011;51448;51.660;5.824;2023-05-31T09:09:17;13.07;;;7.05;;
60502;SDS011;51448;51.660;5.824;2023-05-31T09:12:06;13.50;;;7.10;;
60502;SDS011;51448;51.660;5.824;2023-05-31T09:14:54;10.90;;;6.18;;
60502;SDS011;51448;51.660;5.824;2023-05-31T09:17:45;14.27;;;6.72;;
60502;SDS011;51448;51.660;5.824;2023-05-31T09:20:33;10.80;;;5.93;;
60502;SDS011;51448;51.660;5.824;2023-05-31T09:23:22;15.13;;;7.00;;
60502;SDS011;51448;51.660;5.824;2023-05-31T09:26:09;13.00;;;7.28;;
60502;SDS011;51448;51.660;5.824;2023-05-31T09:28:57;12.63;;;6.97;;
60502;SDS011;51448;51.660;5.824;2023-05-31T09:31:46;13.20;;;6.80;;
60502;SDS011;51448;51.660;5.824;2023-05-31T09:34:34;12.90;;;6.78;;
60502;SDS011;51448;51.660;5.824;2023-05-31T09:37:22;12.50;;;7.60;;
60502;SDS011;51448;51.660;5.824;2023-05-31T09:40:12;11.60;;;6.18;;
60502;SDS011;51448;51.660;5.824;2023-05-31T09:43:17;14.18;;;6.22;;
60502;SDS011;51448;51.660;5.824;2023-05-31T09:46:06;11.85;;;6.70;;
60502;SDS011;51448;51.660;5.824;2023-05-31T09:49:05;12.02;;;6.30;;
60502;SDS011;51448;51.660;5.824;2023-05-31T09:51:54;11.30;;;5.82;;
60502;SDS011;51448;51.660;5.824;2023-05-31T09:54:43;10.82;;;5.43;;
60502;SDS011;51448;51.660;5.824;2023-05-31T09:57:31;10.23;;;5.55;;
60502;SDS011;51448;51.660;5.824;2023-05-31T10:00:27;10.45;;;5.40;;
60502;SDS011;51448;51.660;5.824;2023-05-31T10:03:15;10.25;;;4.85;;
60502;SDS011;51448;51.660;5.824;2023-05-31T10:06:04;10.25;;;5.65;;
60502;SDS011;51448;51.660;5.824;2023-05-31T10:08:52;13.02;;;5.70;;
60502;SDS011;51448;51.660;5.824;2023-05-31T10:11:41;12.10;;;5.63;;
60502;SDS011;51448;51.660;5.824;2023-05-31T10:14:37;10.82;;;5.40;;
60502;SDS011;51448;51.660;5.824;2023-05-31T10:17:33;10.82;;;5.63;;
60502;SDS011;51448;51.660;5.824;2023-05-31T10:20:34;12.77;;;5.68;;
60502;SDS011;51448;51.660;5.824;2023-05-31T10:23:43;12.32;;;5.20;;
60502;SDS011;51448;51.660;5.824;2023-05-31T10:30:12;10.50;;;4.60;;
60502;SDS011;51448;51.660;5.824;2023-05-31T10:33:07;10.40;;;4.65;;
60502;SDS011;51448;51.660;5.824;2023-05-31T10:35:59;9.18;;;4.68;;
60502;SDS011;51448;51.660;5.824;2023-05-31T10:38:50;10.27;;;5.18;;
60502;SDS011;51448;51.660;5.824;2023-05-31T10:41:48;11.90;;;5.07;;
60502;SDS011;51448;51.660;5.824;2023-05-31T10:44:52;9.20;;;4.80;;
60502;SDS011;51448;51.660;5.824;2023-05-31T10:47:52;12.00;;;4.68;;
60502;SDS011;51448;51.660;5.824;2023-05-31T10:50:53;10.95;;;4.68;;
60502;SDS011;51448;51.660;5.824;2023-05-31T10:53:46;10.90;;;4.50;;
60502;SDS011;51448;51.660;5.824;2023-05-31T10:56:37;8.70;;;4.32;;
60502;SDS011;51448;51.660;5.824;2023-05-31T10:59:26;13.13;;;4.70;;
60502;SDS011;51448;51.660;5.824;2023-05-31T11:02:14;9.68;;;4.78;;
60502;SDS011;51448;51.660;5.824;2023-05-31T11:05:20;8.57;;;3.20;;
60502;SDS011;51448;51.660;5.824;2023-05-31T11:08:14;7.43;;;3.30;;
60502;SDS011;51448;51.660;5.824;2023-05-31T11:14:23;6.88;;;3.28;;
60502;SDS011;51448;51.660;5.824;2023-05-31T11:17:14;8.80;;;3.30;;
60502;SDS011;51448;51.660;5.824;2023-05-31T11:20:03;8.20;;;3.17;;
60502;SDS011;51448;51.660;5.824;2023-05-31T11:26:19;8.10;;;2.80;;
60502;SDS011;51448;51.660;5.824;2023-05-31T11:29:08;8.55;;;2.55;;
60502;SDS011;51448;51.660;5.824;2023-05-31T11:31:56;10.80;;;3.35;;
60502;SDS011;51448;51.660;5.824;2023-05-31T11:34:50;9.07;;;2.57;;
60502;SDS011;51448;51.660;5.824;2023-05-31T11:37:43;6.53;;;2.33;;
60502;SDS011;51448;51.660;5.824;2023-05-31T11:40:31;9.98;;;3.00;;
60502;SDS011;51448;51.660;5.824;2023-05-31T11:43:23;7.43;;;3.05;;
60502;SDS011;51448;51.660;5.824;2023-05-31T11:46:13;9.63;;;2.30;;
60502;SDS011;51448;51.660;5.824;2023-05-31T11:49:01;8.60;;;2.75;;
60502;SDS011;51448;51.660;5.824;2023-05-31T11:51:49;7.88;;;2.97;;
60502;SDS011;51448;51.660;5.824;2023-05-31T11:54:37;7.10;;;2.35;;
60502;SDS011;51448;51.660;5.824;2023-05-31T11:57:25;7.93;;;2.70;;
60502;SDS011;51448;51.660;5.824;2023-05-31T12:00:13;8.65;;;2.95;;
60502;SDS011;51448;51.660;5.824;2023-05-31T12:03:02;9.88;;;3.22;;
60502;SDS011;51448;51.660;5.824;2023-05-31T12:05:56;8.77;;;2.92;;
60502;SDS011;51448;51.660;5.824;2023-05-31T12:08:46;8.07;;;2.70;;
60502;SDS011;51448;51.660;5.824;2023-05-31T12:11:34;11.13;;;2.72;;
60502;SDS011;51448;51.660;5.824;2023-05-31T12:14:25;8.40;;;3.17;;
60502;SDS011;51448;51.660;5.824;2023-05-31T12:17:13;9.73;;;3.03;;
60502;SDS011;51448;51.660;5.824;2023-05-31T12:20:01;8.07;;;3.00;;
60502;SDS011;51448;51.660;5.824;2023-05-31T12:22:52;10.43;;;2.97;;
60502;SDS011;51448;51.660;5.824;2023-05-31T12:25:57;8.55;;;2.40;;
60502;SDS011;51448;51.660;5.824;2023-05-31T12:28:46;7.32;;;3.10;;
60502;SDS011;51448;51.660;5.824;2023-05-31T12:31:36;9.70;;;2.83;;
60502;SDS011;51448;51.660;5.824;2023-05-31T12:34:25;7.47;;;2.73;;
60502;SDS011;51448;51.660;5.824;2023-05-31T12:37:13;9.60;;;3.50;;
60502;SDS011;51448;51.660;5.824;2023-05-31T12:43:04;9.27;;;3.08;;
60502;SDS011;51448;51.660;5.824;2023-05-31T12:45:53;9.68;;;2.72;;
60502;SDS011;51448;51.660;5.824;2023-05-31T12:48:45;8.18;;;3.00;;
60502;SDS011;51448;51.660;5.824;2023-05-31T12:51:36;9.20;;;3.22;;
60502;SDS011;51448;51.660;5.824;2023-05-31T12:54:25;9.85;;;2.75;;
60502;SDS011;51448;51.660;5.824;2023-05-31T12:57:18;6.95;;;2.45;;
60502;SDS011;51448;51.660;5.824;2023-05-31T13:00:07;8.77;;;2.70;;
60502;SDS011;51448;51.660;5.824;2023-05-31T13:02:58;8.40;;;2.88;;
60502;SDS011;51448;51.660;5.824;2023-05-31T13:05:46;7.00;;;2.92;;
60502;SDS011;51448;51.660;5.824;2023-05-31T13:08:34;9.93;;;3.15;;
60502;SDS011;51448;51.660;5.824;2023-05-31T13:11:22;8.13;;;3.50;;
60502;SDS011;51448;51.660;5.824;2023-05-31T13:14:10;8.13;;;2.95;;
60502;SDS011;51448;51.660;5.824;2023-05-31T13:16:58;6.88;;;3.03;;
60502;SDS011;51448;51.660;5.824;2023-05-31T13:19:46;6.95;;;2.33;;
60502;SDS011;51448;51.660;5.824;2023-05-31T13:22:54;6.57;;;2.53;;
60502;SDS011;51448;51.660;5.824;2023-05-31T13:25:45;8.63;;;2.63;;
60502;SDS011;51448;51.660;5.824;2023-05-31T13:28:33;7.47;;;2.42;;
60502;SDS011;51448;51.660;5.824;2023-05-31T13:31:22;8.45;;;3.10;;
60502;SDS011;51448;51.660;5.824;2023-05-31T13:34:11;7.45;;;2.65;;
60502;SDS011;51448;51.660;5.824;2023-05-31T13:36:59;9.05;;;3.00;;
60502;SDS011;51448;51.660;5.824;2023-05-31T13:39:47;9.27;;;3.08;;
60502;SDS011;51448;51.660;5.824;2023-05-31T13:42:35;7.85;;;3.20;;
60502;SDS011;51448;51.660;5.824;2023-05-31T13:45:22;10.02;;;3.15;;
60502;SDS011;51448;51.660;5.824;2023-05-31T13:48:10;7.88;;;2.70;;
60502;SDS011;51448;51.660;5.824;2023-05-31T13:51:00;7.93;;;2.78;;
60502;SDS011;51448;51.660;5.824;2023-05-31T13:53:49;8.98;;;2.97;;
60502;SDS011;51448;51.660;5.824;2023-05-31T13:56:37;8.00;;;2.92;;
60502;SDS011;51448;51.660;5.824;2023-05-31T13:59:24;10.05;;;3.10;;
60502;SDS011;51448;51.660;5.824;2023-05-31T14:02:12;8.45;;;2.88;;
60502;SDS011;51448;51.660;5.824;2023-05-31T14:05:00;10.40;;;2.92;;
60502;SDS011;51448;51.660;5.824;2023-05-31T14:07:50;8.98;;;3.25;;
60502;SDS011;51448;51.660;5.824;2023-05-31T14:10:38;11.88;;;3.20;;
60502;SDS011;51448;51.660;5.824;2023-05-31T14:13:26;10.00;;;3.40;;
60502;SDS011;51448;51.660;5.824;2023-05-31T14:16:16;10.63;;;3.22;;
60502;SDS011;51448;51.660;5.824;2023-05-31T14:19:04;6.35;;;2.55;;
60502;SDS011;51448;51.660;5.824;2023-05-31T14:21:52;9.55;;;3.50;;
60502;SDS011;51448;51.660;5.824;2023-05-31T14:24:40;8.57;;;2.95;;
60502;SDS011;51448;51.660;5.824;2023-05-31T14:27:28;9.60;;;2.65;;
60502;SDS011;51448;51.660;5.824;2023-05-31T14:30:16;7.00;;;2.80;;
60502;SDS011;51448;51.660;5.824;2023-05-31T14:33:03;7.07;;;2.63;;
60502;SDS011;51448;51.660;5.824;2023-05-31T14:35:52;10.05;;;2.75;;
60502;SDS011;51448;51.660;5.824;2023-05-31T14:38:41;10.90;;;2.90;;
60502;SDS011;51448;51.660;5.824;2023-05-31T14:41:29;7.72;;;2.75;;
60502;SDS011;51448;51.660;5.824;2023-05-31T14:44:17;7.97;;;3.17;;
60502;SDS011;51448;51.660;5.824;2023-05-31T14:47:05;8.88;;;2.80;;
60502;SDS011;51448;51.660;5.824;2023-05-31T14:49:53;8.50;;;2.53;;
60502;SDS011;51448;51.660;5.824;2023-05-31T14:52:40;8.25;;;2.85;;
60502;SDS011;51448;51.660;5.824;2023-05-31T14:55:28;6.95;;;2.80;;
60502;SDS011;51448;51.660;5.824;2023-05-31T14:58:16;8.77;;;2.95;;
60502;SDS011;51448;51.660;5.824;2023-05-31T15:01:04;10.63;;;2.67;;
60502;SDS011;51448;51.660;5.824;2023-05-31T15:03:52;11.82;;;2.92;;
60502;SDS011;51448;51.660;5.824;2023-05-31T15:06:42;9.02;;;3.03;;
60502;SDS011;51448;51.660;5.824;2023-05-31T15:09:30;11.55;;;3.63;;
60502;SDS011;51448;51.660;5.824;2023-05-31T15:12:18;7.00;;;2.58;;
60502;SDS011;51448;51.660;5.824;2023-05-31T15:15:06;7.70;;;3.10;;
60502;SDS011;51448;51.660;5.824;2023-05-31T15:17:54;9.20;;;2.72;;
60502;SDS011;51448;51.660;5.824;2023-05-31T15:20:42;7.45;;;2.67;;
60502;SDS011;51448;51.660;5.824;2023-05-31T15:23:30;7.53;;;2.95;;
60502;SDS011;51448;51.660;5.824;2023-05-31T15:26:17;10.15;;;2.70;;
60502;SDS011;51448;51.660;5.824;2023-05-31T15:29:05;8.63;;;3.22;;
60502;SDS011;51448;51.660;5.824;2023-05-31T15:31:53;7.43;;;2.70;;
60502;SDS011;51448;51.660;5.824;2023-05-31T15:34:44;9.68;;;3.05;;
60502;SDS011;51448;51.660;5.824;2023-05-31T15:37:32;7.32;;;2.60;;
60502;SDS011;51448;51.660;5.824;2023-05-31T15:40:20;6.32;;;2.30;;
60502;SDS011;51448;51.660;5.824;2023-05-31T15:43:08;10.75;;;3.00;;
60502;SDS011;51448;51.660;5.824;2023-05-31T15:45:56;6.28;;;2.58;;
60502;SDS011;51448;51.660;5.824;2023-05-31T15:48:44;7.93;;;2.53;;
60502;SDS011;51448;51.660;5.824;2023-05-31T15:51:31;7.80;;;2.80;;
60502;SDS011;51448;51.660;5.824;2023-05-31T15:54:19;9.70;;;2.40;;
60502;SDS011;51448;51.660;5.824;2023-05-31T15:57:08;7.75;;;2.65;;
60502;SDS011;51448;51.660;5.824;2023-05-31T15:59:56;8.73;;;2.83;;
60502;SDS011;51448;51.660;5.824;2023-05-31T16:02:43;7.97;;;2.63;;
60502;SDS011;51448;51.660;5.824;2023-05-31T16:05:31;8.18;;;2.55;;
60502;SDS011;51448;51.660;5.824;2023-05-31T16:08:19;10.10;;;2.70;;
60502;SDS011;51448;51.660;5.824;2023-05-31T16:11:07;6.18;;;2.40;;
60502;SDS011;51448;51.660;5.824;2023-05-31T16:13:55;7.82;;;2.30;;
60502;SDS011;51448;51.660;5.824;2023-05-31T16:16:43;6.07;;;2.58;;
60502;SDS011;51448;51.660;5.824;2023-05-31T16:19:31;7.15;;;2.30;;
60502;SDS011;51448;51.660;5.824;2023-05-31T16:22:18;7.70;;;2.67;;
60502;SDS011;51448;51.660;5.824;2023-05-31T16:25:06;10.90;;;3.00;;
60502;SDS011;51448;51.660;5.824;2023-05-31T16:27:56;8.48;;;3.00;;
60502;SDS011;51448;51.660;5.824;2023-05-31T16:30:44;8.15;;;2.60;;
60502;SDS011;51448;51.660;5.824;2023-05-31T16:33:32;7.70;;;3.10;;
60502;SDS011;51448;51.660;5.824;2023-05-31T16:36:20;6.45;;;2.67;;
60502;SDS011;51448;51.660;5.824;2023-05-31T16:39:08;7.35;;;2.65;;
60502;SDS011;51448;51.660;5.824;2023-05-31T16:41:56;8.77;;;2.50;;
60502;SDS011;51448;51.660;5.824;2023-05-31T16:44:45;5.90;;;2.20;;
60502;SDS011;51448;51.660;5.824;2023-05-31T16:47:33;8.50;;;2.47;;
60502;SDS011;51448;51.660;5.824;2023-05-31T16:50:21;5.80;;;2.35;;
60502;SDS011;51448;51.660;5.824;2023-05-31T16:53:09;8.40;;;2.00;;
60502;SDS011;51448;51.660;5.824;2023-05-31T16:55:57;8.15;;;2.55;;
60502;SDS011;51448;51.660;5.824;2023-05-31T16:58:45;6.40;;;2.42;;
60502;SDS011;51448;51.660;5.824;2023-05-31T17:01:33;9.63;;;2.70;;
60502;SDS011;51448;51.660;5.824;2023-05-31T17:04:21;6.75;;;2.60;;
60502;SDS011;51448;51.660;5.824;2023-05-31T17:07:09;6.85;;;2.63;;
60502;SDS011;51448;51.660;5.824;2023-05-31T17:09:57;4.07;;;1.98;;
60502;SDS011;51448;51.660;5.824;2023-05-31T17:12:45;7.45;;;2.50;;
60502;SDS011;51448;51.660;5.824;2023-05-31T17:15:34;8.90;;;2.97;;
60502;SDS011;51448;51.660;5.824;2023-05-31T17:18:22;8.35;;;2.50;;
60502;SDS011;51448;51.660;5.824;2023-05-31T17:21:10;7.20;;;2.58;;
60502;SDS011;51448;51.660;5.824;2023-05-31T17:23:58;6.20;;;2.50;;
60502;SDS011;51448;51.660;5.824;2023-05-31T17:26:45;6.68;;;2.40;;
60502;SDS011;51448;51.660;5.824;2023-05-31T17:29:34;7.57;;;2.55;;
60502;SDS011;51448;51.660;5.824;2023-05-31T17:32:22;9.77;;;2.70;;
60502;SDS011;51448;51.660;5.824;2023-05-31T17:35:10;6.82;;;2.80;;
60502;SDS011;51448;51.660;5.824;2023-05-31T17:37:57;6.07;;;2.40;;
60502;SDS011;51448;51.660;5.824;2023-05-31T17:40:45;6.20;;;2.22;;